Have a Safe July 4th! 

Flight Track Log - Related Links

Times and Time Zones

All times are in EDT time to prevent confusion due to time zone crossing. See the N209CM flight status page for this flight to view local times or setup timezone preferences in your user account.

Time Position Orientation Groundspeed Altitude Reporting Facility
EDT Latitude Longitude Course Direction KTS MPH feet Rate Location/Type
Mon 01:09:15 PM 36.0647 -80.3486 213° Southwest 255 293 7,000  Level FAA TRACON SMA TRACON (SMA)
Mon 01:09:35 PM 36.0453 -80.3581 201° Southwest 244 281 7,000  Level FAA TRACON SMA TRACON (SMA)
Mon 01:09:55 PM 36.0253 -80.3669 200° South 246 283 7,000 450 Level FAA TRACON SMA TRACON (SMA)
Mon 01:10:15 PM 36.0011 -80.3789 202° Southwest 245 282 7,300 1,050 Climbing FAA TRACON SMA TRACON (SMA)
Mon 01:10:35 PM 35.9819 -80.3875 200° South 239 275 7,700 1,600 Climbing FAA TRACON SMA TRACON (SMA)
Mon 01:11:15 PM 35.9422 -80.4050 200° South 220 253 8,900 1,300 Climbing FAA TRACON SMA TRACON (SMA)
Mon 01:11:35 PM 35.9244 -80.4117 197° South 219 252 9,000 300 Climbing FAA TRACON SMA TRACON (SMA)
Mon 01:11:55 PM 35.9064 -80.4206 202° Southwest 224 258 9,100 150 Climbing FAA TRACON SMA TRACON (SMA)
Mon 01:12:00 PM 35.8515 -80.4357 213° Southwest  Level FlightAware Approximate
Mon 01:12:15 PM 35.8825 -80.4325 202° Southwest 234 269 9,100  Level FAA TRACON SMA TRACON (SMA)
Mon 01:12:35 PM 35.8619 -80.4403 197° South 243 280 9,100  Level FAA TRACON SMA TRACON (SMA)
Mon 01:12:55 PM 35.8425 -80.4494 201° Southwest 241 277 9,100  Level FAA TRACON SMA TRACON (SMA)
Mon 01:13:00 PM 35.8047 -80.4730 213° Southwest  Level FlightAware Approximate
Mon 01:13:10 PM 35.8203 -80.4586 198° South 247 284 9,100  Level Atlanta Center
Mon 01:14:00 PM 35.7580 -80.5103 213° Southwest  Level FlightAware Approximate
Mon 01:14:11 PM 35.7586 -80.4894 202° Southwest 245 282 9,100  Level Atlanta Center
Mon 01:15:12 PM 35.7014 -80.5303 210° Southwest 241 277 9,100  Level Atlanta Center
Mon 01:16:13 PM 35.6464 -80.5761 214° Southwest 233 268 9,100  Level Atlanta Center
Mon 01:17:14 PM 35.5933 -80.6192 213° Southwest 232 267 9,100  Level Atlanta Center
Mon 01:18:16 PM 35.5364 -80.6675 215° Southwest 233 268 9,100  Level Atlanta Center
Mon 01:19:17 PM 35.4811 -80.7106 212° Southwest 234 269 9,100  Level Atlanta Center
Mon 01:20:18 PM 35.4283 -80.7586 217° Southwest 234 269 9,100  Level Atlanta Center
Mon 01:21:19 PM 35.3753 -80.8039 215° Southwest 234 269 9,100  Level Atlanta Center
Mon 01:21:35 PM 35.3592 -80.8156 211° Southwest 233 268 9,100  Level FAA TRACON SMA TRACON (SMA)
Mon 01:21:55 PM 35.3425 -80.8292 214° Southwest 235 270 9,100  Level FAA TRACON SMA TRACON (SMA)
Mon 01:22:15 PM 35.3222 -80.8306 183° South 243 280 9,100  Level FAA TRACON SMA TRACON (SMA)
Mon 01:22:35 PM 35.2967 -80.8272 174° South 242 278 9,100  Level FAA TRACON SMA TRACON (SMA)
Mon 01:22:55 PM 35.2764 -80.8247 174° South 236 272 9,100  Level FAA TRACON SMA TRACON (SMA)
Mon 01:23:15 PM 35.2561 -80.8231 176° South 235 270 9,100  Level FAA TRACON SMA TRACON (SMA)
Mon 01:23:35 PM 35.2303 -80.8214 177° South 236 272 9,100  Level FAA TRACON SMA TRACON (SMA)
Mon 01:23:55 PM 35.2100 -80.8203 177° South 236 272 9,100 -450 Level FAA TRACON SMA TRACON (SMA)
Mon 01:24:15 PM 35.1892 -80.8189 177° South 238 274 8,800 -1,500 Descending FAA TRACON SMA TRACON (SMA)
Mon 01:24:35 PM 35.1631 -80.8175 178° South 239 275 8,100 -2,100 Descending FAA TRACON SMA TRACON (SMA)
Mon 01:24:55 PM 35.1428 -80.8158 176° South 236 272 7,400 -2,250 Descending FAA TRACON SMA TRACON (SMA)
Mon 01:25:15 PM 35.1231 -80.8142 176° South 228 262 6,600 -2,615 Descending FAA TRACON SMA TRACON (SMA)
Mon 01:25:34 PM 35.1036 -80.8131 177° South 228 262 5,700 -2,923 Descending FAA TRACON SMA TRACON (SMA)
Mon 01:25:54 PM 35.0789 -80.8128 179° South 229 264 4,700 -2,195 Descending FAA TRACON SMA TRACON (SMA)
Mon 01:26:15 PM 35.0597 -80.8131 181° South 226 260 4,200 -878 Descending FAA TRACON SMA TRACON (SMA)
Mon 01:26:35 PM 35.0422 -80.8203 199° South 235 270 4,100 -150 Descending FAA TRACON SMA TRACON (SMA)
Mon 01:26:55 PM 35.0333 -80.8450 246° West 219 252 4,100  Level FAA TRACON SMA TRACON (SMA)
Mon 01:27:15 PM 35.0406 -80.8656 293° West 222 255 4,100  Level FAA TRACON SMA TRACON (SMA)
Mon 01:27:35 PM 35.0522 -80.8822 311° West 211 243 4,100  Level FAA TRACON SMA TRACON (SMA)
Mon 01:27:55 PM 35.0661 -80.9014 312° West 197 227 4,100 -450 Level FAA TRACON SMA TRACON (SMA)
Mon 01:28:15 PM 35.0781 -80.9144 318° Northwest 193 222 3,800 -900 Descending FAA TRACON SMA TRACON (SMA)
Mon 01:28:35 PM 35.0931 -80.9236 333° Northwest 199 229 3,500 -1,050 Descending FAA TRACON SMA TRACON (SMA)
Mon 01:28:55 PM 35.1122 -80.9278 350° North 180 207 3,100 -1,050 Descending FAA TRACON SMA TRACON (SMA)
Mon 01:29:15 PM 35.1272 -80.9289 357° North 167 192 2,800 -1,050 Descending FAA TRACON SMA TRACON (SMA)
Mon 01:29:35 PM 35.1397 -80.9281 North 165 190 2,400 -1,350 Descending FAA TRACON SMA TRACON (SMA)
Mon 01:29:55 PM 35.1561 -80.9306 353° North 131 151 1,900 -1,050 Descending FAA TRACON SMA TRACON (SMA)
Mon 01:30:15 PM 35.1661 -80.9311 357° North 114 131 1,700 -750 Descending FAA TRACON SMA TRACON (SMA)
Mon 01:30:35 PM 35.1756 -80.9322 355° North 110 127 1,400 -750 Descending FAA TRACON SMA TRACON (SMA)
Mon 01:30:55 PM 35.1869 -80.9331 357° North 106 122 1,200 -585 Descending FAA TRACON SMA TRACON (SMA)
Mon 01:31:16 PM 35.1956 -80.9336 357° North 100 115 1,000 -450 Descending FAA TRACON SMA TRACON (SMA)
Mon 01:31:35 PM 35.1975 -80.9339 353° North 99 114 900 -102 Descending FAA TRACON SMA TRACON (SMA)
Mon 01:32:15 PM 35.1975 -80.9339 90° East 99 114 900  Level FAA TRACON SMA TRACON (SMA)

Login

Don't have an account? Register now (free) for customized features, flight alerts, and more!